sensor_id;sensor_type;location;lat;lon;timestamp;temperature;humidity
5419;DHT22;2732;52.092;11.556;2023-04-06T00:02:29;0.60;97.30
5419;DHT22;2732;52.092;11.556;2023-04-06T00:07:30;0.60;97.50
5419;DHT22;2732;52.092;11.556;2023-04-06T00:12:31;0.50;97.70
5419;DHT22;2732;52.092;11.556;2023-04-06T00:17:31;0.50;97.90
5419;DHT22;2732;52.092;11.556;2023-04-06T00:22:33;0.40;98.10
5419;DHT22;2732;52.092;11.556;2023-04-06T00:27:33;0.40;98.30
5419;DHT22;2732;52.092;11.556;2023-04-06T00:32:35;0.40;98.50
5419;DHT22;2732;52.092;11.556;2023-04-06T00:37:36;0.30;98.70
5419;DHT22;2732;52.092;11.556;2023-04-06T00:42:37;0.30;98.90
5419;DHT22;2732;52.092;11.556;2023-04-06T00:47:37;0.30;99.10
5419;DHT22;2732;52.092;11.556;2023-04-06T00:52:38;0.20;99.30
5419;DHT22;2732;52.092;11.556;2023-04-06T00:57:38;0.20;99.50
5419;DHT22;2732;52.092;11.556;2023-04-06T01:02:39;0.20;99.70
5419;DHT22;2732;52.092;11.556;2023-04-06T01:07:40;0.10;99.80
5419;DHT22;2732;52.092;11.556;2023-04-06T01:12:40;0.10;99.90
5419;DHT22;2732;52.092;11.556;2023-04-06T01:17:41;0.10;99.90
5419;DHT22;2732;52.092;11.556;2023-04-06T01:22:42;0.10;99.90
5419;DHT22;2732;52.092;11.556;2023-04-06T01:27:42;0.00;99.90
5419;DHT22;2732;52.092;11.556;2023-04-06T01:32:43;0.00;99.90
5419;DHT22;2732;52.092;11.556;2023-04-06T01:37:46;-0.10;99.90
5419;DHT22;2732;52.092;11.556;2023-04-06T01:42:47;-0.10;99.90
5419;DHT22;2732;52.092;11.556;2023-04-06T01:47:48;-0.10;99.90
5419;DHT22;2732;52.092;11.556;2023-04-06T01:52:49;-0.20;99.90
5419;DHT22;2732;52.092;11.556;2023-04-06T01:57:50;-0.20;99.90
5419;DHT22;2732;52.092;11.556;2023-04-06T02:02:50;-0.30;99.90
5419;DHT22;2732;52.092;11.556;2023-04-06T02:07:51;-0.30;99.90
5419;DHT22;2732;52.092;11.556;2023-04-06T02:12:52;-0.30;99.90
5419;DHT22;2732;52.092;11.556;2023-04-06T02:17:52;-0.40;99.90
5419;DHT22;2732;52.092;11.556;2023-04-06T02:22:56;-0.40;99.90
5419;DHT22;2732;52.092;11.556;2023-04-06T02:27:58;-0.50;99.90
5419;DHT22;2732;52.092;11.556;2023-04-06T02:33:00;-0.50;99.90
5419;DHT22;2732;52.092;11.556;2023-04-06T02:38:01;-0.50;99.90
5419;DHT22;2732;52.092;11.556;2023-04-06T02:43:01;-0.50;99.90
5419;DHT22;2732;52.092;11.556;2023-04-06T02:48:02;-0.60;99.90
5419;DHT22;2732;52.092;11.556;2023-04-06T02:53:03;-0.60;99.90
5419;DHT22;2732;52.092;11.556;2023-04-06T02:58:03;-0.70;99.90
5419;DHT22;2732;52.092;11.556;2023-04-06T03:03:04;-0.70;99.90
5419;DHT22;2732;52.092;11.556;2023-04-06T03:08:04;-0.80;99.90
5419;DHT22;2732;52.092;11.556;2023-04-06T03:13:05;-0.80;99.90
5419;DHT22;2732;52.092;11.556;2023-04-06T03:18:06;-0.80;99.90
5419;DHT22;2732;52.092;11.556;2023-04-06T03:23:07;-0.90;99.90
5419;DHT22;2732;52.092;11.556;2023-04-06T03:28:07;-0.90;99.90
5419;DHT22;2732;52.092;11.556;2023-04-06T03:33:08;-1.00;99.90
5419;DHT22;2732;52.092;11.556;2023-04-06T03:38:09;-1.00;99.90
5419;DHT22;2732;52.092;11.556;2023-04-06T03:43:09;-1.00;99.90
5419;DHT22;2732;52.092;11.556;2023-04-06T03:48:10;-1.10;99.90
5419;DHT22;2732;52.092;11.556;2023-04-06T03:53:11;-1.10;99.90
5419;DHT22;2732;52.092;11.556;2023-04-06T03:58:11;-1.20;99.90
5419;DHT22;2732;52.092;11.556;2023-04-06T04:03:12;-1.20;99.90
5419;DHT22;2732;52.092;11.556;2023-04-06T04:08:12;-1.20;99.90
5419;DHT22;2732;52.092;11.556;2023-04-06T04:13:13;-1.30;99.90
5419;DHT22;2732;52.092;11.556;2023-04-06T04:18:13;-1.30;99.90
5419;DHT22;2732;52.092;11.556;2023-04-06T04:23:14;-1.30;99.90
5419;DHT22;2732;52.092;11.556;2023-04-06T04:28:15;-1.30;99.90
5419;DHT22;2732;52.092;11.556;2023-04-06T04:33:15;-1.40;99.90
5419;DHT22;2732;52.092;11.556;2023-04-06T04:38:16;-1.40;99.90
5419;DHT22;2732;52.092;11.556;2023-04-06T04:43:16;-1.40;99.90
5419;DHT22;2732;52.092;11.556;2023-04-06T04:48:17;-1.50;99.90
5419;DHT22;2732;52.092;11.556;2023-04-06T04:53:18;-1.50;99.90
5419;DHT22;2732;52.092;11.556;2023-04-06T04:58:18;-1.50;99.90
5419;DHT22;2732;52.092;11.556;2023-04-06T05:03:22;-1.50;99.90
5419;DHT22;2732;52.092;11.556;2023-04-06T05:08:24;-1.50;99.90
5419;DHT22;2732;52.092;11.556;2023-04-06T05:13:24;-1.50;99.90
5419;DHT22;2732;52.092;11.556;2023-04-06T05:18:25;-1.50;99.90
5419;DHT22;2732;52.092;11.556;2023-04-06T05:23:27;-1.50;99.90
5419;DHT22;2732;52.092;11.556;2023-04-06T05:28:28;-1.50;99.90
5419;DHT22;2732;52.092;11.556;2023-04-06T05:33:30;-1.50;99.90
5419;DHT22;2732;52.092;11.556;2023-04-06T05:38:30;-1.50;99.90
5419;DHT22;2732;52.092;11.556;2023-04-06T05:43:31;-1.50;99.90
5419;DHT22;2732;52.092;11.556;2023-04-06T05:48:32;-1.40;99.90
5419;DHT22;2732;52.092;11.556;2023-04-06T05:53:32;-1.40;99.90
5419;DHT22;2732;52.092;11.556;2023-04-06T05:58:33;-1.30;99.90
5419;DHT22;2732;52.092;11.556;2023-04-06T06:03:34;-1.20;99.90
5419;DHT22;2732;52.092;11.556;2023-04-06T06:08:34;-1.00;99.90
5419;DHT22;2732;52.092;11.556;2023-04-06T06:13:35;-0.90;99.90
5419;DHT22;2732;52.092;11.556;2023-04-06T06:18:35;-0.80;99.90
5419;DHT22;2732;52.092;11.556;2023-04-06T06:23:37;-0.60;99.90
5419;DHT22;2732;52.092;11.556;2023-04-06T06:28:37;-0.50;99.90
5419;DHT22;2732;52.092;11.556;2023-04-06T06:33:38;-0.40;99.90
5419;DHT22;2732;52.092;11.556;2023-04-06T06:38:38;-0.20;99.90
5419;DHT22;2732;52.092;11.556;2023-04-06T06:43:39;0.00;99.90
5419;DHT22;2732;52.092;11.556;2023-04-06T06:48:40;0.10;99.90
5419;DHT22;2732;52.092;11.556;2023-04-06T06:53:40;0.30;99.90
5419;DHT22;2732;52.092;11.556;2023-04-06T06:58:41;0.40;99.90
5419;DHT22;2732;52.092;11.556;2023-04-06T07:03:41;0.50;99.90
5419;DHT22;2732;52.092;11.556;2023-04-06T07:08:42;0.70;99.90
5419;DHT22;2732;52.092;11.556;2023-04-06T07:13:43;0.90;99.90
5419;DHT22;2732;52.092;11.556;2023-04-06T07:18:43;1.00;99.90
5419;DHT22;2732;52.092;11.556;2023-04-06T07:23:44;1.20;99.90
5419;DHT22;2732;52.092;11.556;2023-04-06T07:28:45;1.40;99.90
5419;DHT22;2732;52.092;11.556;2023-04-06T07:33:45;1.60;99.90
5419;DHT22;2732;52.092;11.556;2023-04-06T07:38:48;1.90;99.90
5419;DHT22;2732;52.092;11.556;2023-04-06T07:43:49;2.40;99.90
5419;DHT22;2732;52.092;11.556;2023-04-06T07:48:50;2.80;99.90
5419;DHT22;2732;52.092;11.556;2023-04-06T07:53:51;3.30;99.90
5419;DHT22;2732;52.092;11.556;2023-04-06T07:58:52;3.70;99.90
5419;DHT22;2732;52.092;11.556;2023-04-06T08:03:56;4.10;99.90
5419;DHT22;2732;52.092;11.556;2023-04-06T08:08:57;4.50;99.90
5419;DHT22;2732;52.092;11.556;2023-04-06T08:13:57;5.00;99.90
5419;DHT22;2732;52.092;11.556;2023-04-06T08:18:58;5.50;99.90
5419;DHT22;2732;52.092;11.556;2023-04-06T08:23:59;5.90;99.90
5419;DHT22;2732;52.092;11.556;2023-04-06T08:28:59;6.20;99.90
5419;DHT22;2732;52.092;11.556;2023-04-06T08:34:00;6.60;99.90
5419;DHT22;2732;52.092;11.556;2023-04-06T08:39:02;7.10;99.90
5419;DHT22;2732;52.092;11.556;2023-04-06T08:44:02;7.50;99.90
5419;DHT22;2732;52.092;11.556;2023-04-06T08:49:04;7.90;99.90
5419;DHT22;2732;52.092;11.556;2023-04-06T08:54:08;8.20;99.90
5419;DHT22;2732;52.092;11.556;2023-04-06T08:59:09;8.60;99.30
5419;DHT22;2732;52.092;11.556;2023-04-06T09:04:11;8.90;98.20
5419;DHT22;2732;52.092;11.556;2023-04-06T09:09:11;9.30;97.90
5419;DHT22;2732;52.092;11.556;2023-04-06T09:14:12;9.70;97.30
5419;DHT22;2732;52.092;11.556;2023-04-06T09:19:13;10.00;96.40
5419;DHT22;2732;52.092;11.556;2023-04-06T09:24:13;10.40;95.50
5419;DHT22;2732;52.092;11.556;2023-04-06T09:29:24;10.80;95.30
5419;DHT22;2732;52.092;11.556;2023-04-06T09:34:28;11.20;94.80
5419;DHT22;2732;52.092;11.556;2023-04-06T09:39:29;11.40;93.90
5419;DHT22;2732;52.092;11.556;2023-04-06T09:44:30;11.70;93.60
5419;DHT22;2732;52.092;11.556;2023-04-06T09:49:31;12.10;93.10
5419;DHT22;2732;52.092;11.556;2023-04-06T09:54:35;12.30;92.60
5419;DHT22;2732;52.092;11.556;2023-04-06T10:10:32;13.30;90.20
5419;DHT22;2732;52.092;11.556;2023-04-06T10:15:33;13.60;87.50
5419;DHT22;2732;52.092;11.556;2023-04-06T10:20:57;13.80;84.20
5419;DHT22;2732;52.092;11.556;2023-04-06T10:26:02;14.00;82.50
5419;DHT22;2732;52.092;11.556;2023-04-06T10:31:07;14.30;81.80
5419;DHT22;2732;52.092;11.556;2023-04-06T10:36:21;14.60;80.50
5419;DHT22;2732;52.092;11.556;2023-04-06T10:41:23;14.80;77.80
5419;DHT22;2732;52.092;11.556;2023-04-06T10:46:30;14.90;76.60
5419;DHT22;2732;52.092;11.556;2023-04-06T10:51:32;15.20;76.60
5419;DHT22;2732;52.092;11.556;2023-04-06T10:56:36;15.50;75.90
5419;DHT22;2732;52.092;11.556;2023-04-06T11:01:44;15.80;75.20
5419;DHT22;2732;52.092;11.556;2023-04-06T11:06:49;16.00;74.10
5419;DHT22;2732;52.092;11.556;2023-04-06T11:11:50;16.10;71.60
5419;DHT22;2732;52.092;11.556;2023-04-06T11:16:51;16.30;69.60
5419;DHT22;2732;52.092;11.556;2023-04-06T11:21:52;16.50;69.10
5419;DHT22;2732;52.092;11.556;2023-04-06T11:26:55;16.50;65.60
5419;DHT22;2732;52.092;11.556;2023-04-06T11:32:00;16.70;65.90
5419;DHT22;2732;52.092;11.556;2023-04-06T11:37:03;17.00;67.80
5419;DHT22;2732;52.092;11.556;2023-04-06T11:42:08;17.30;67.10
5419;DHT22;2732;52.092;11.556;2023-04-06T11:47:10;17.40;64.40
5419;DHT22;2732;52.092;11.556;2023-04-06T11:52:21;17.50;63.20
5419;DHT22;2732;52.092;11.556;2023-04-06T11:57:23;17.80;65.00
5419;DHT22;2732;52.092;11.556;2023-04-06T12:02:28;18.10;62.80
5419;DHT22;2732;52.092;11.556;2023-04-06T12:07:29;18.20;61.60
5419;DHT22;2732;52.092;11.556;2023-04-06T12:12:30;18.40;62.60
5419;DHT22;2732;52.092;11.556;2023-04-06T12:17:32;18.60;60.80
5419;DHT22;2732;52.092;11.556;2023-04-06T12:22:33;18.80;61.60
5419;DHT22;2732;52.092;11.556;2023-04-06T12:27:34;18.90;59.70
5419;DHT22;2732;52.092;11.556;2023-04-06T12:32:34;18.90;59.20
5419;DHT22;2732;52.092;11.556;2023-04-06T12:37:35;19.00;58.10
5419;DHT22;2732;52.092;11.556;2023-04-06T12:42:38;19.10;57.50
5419;DHT22;2732;52.092;11.556;2023-04-06T12:47:40;19.10;56.40
5419;DHT22;2732;52.092;11.556;2023-04-06T12:52:41;19.20;57.50
5419;DHT22;2732;52.092;11.556;2023-04-06T12:57:42;19.40;57.20
5419;DHT22;2732;52.092;11.556;2023-04-06T13:02:43;19.40;55.60
5419;DHT22;2732;52.092;11.556;2023-04-06T13:07:47;19.30;55.30
5419;DHT22;2732;52.092;11.556;2023-04-06T13:12:47;19.40;56.10
5419;DHT22;2732;52.092;11.556;2023-04-06T13:17:48;19.30;54.30
5419;DHT22;2732;52.092;11.556;2023-04-06T13:22:49;19.20;54.30
5419;DHT22;2732;52.092;11.556;2023-04-06T13:27:49;19.30;54.80
5419;DHT22;2732;52.092;11.556;2023-04-06T13:32:50;19.20;53.80
5419;DHT22;2732;52.092;11.556;2023-04-06T13:37:51;19.10;52.80
5419;DHT22;2732;52.092;11.556;2023-04-06T13:42:53;18.90;52.60
5419;DHT22;2732;52.092;11.556;2023-04-06T13:47:54;18.90;52.90
5419;DHT22;2732;52.092;11.556;2023-04-06T13:52:55;18.90;53.50
5419;DHT22;2732;52.092;11.556;2023-04-06T13:57:56;18.90;53.20
5419;DHT22;2732;52.092;11.556;2023-04-06T14:02:57;18.90;53.40
5419;DHT22;2732;52.092;11.556;2023-04-06T14:07:57;18.90;53.00
5419;DHT22;2732;52.092;11.556;2023-04-06T14:12:58;18.80;52.90
5419;DHT22;2732;52.092;11.556;2023-04-06T14:17:58;18.70;51.50
5419;DHT22;2732;52.092;11.556;2023-04-06T14:23:02;18.70;52.20
5419;DHT22;2732;52.092;11.556;2023-04-06T14:28:03;18.70;52.70
5419;DHT22;2732;52.092;11.556;2023-04-06T14:33:04;18.60;52.50
5419;DHT22;2732;52.092;11.556;2023-04-06T14:38:04;18.60;52.80
5419;DHT22;2732;52.092;11.556;2023-04-06T14:43:05;18.50;52.50
5419;DHT22;2732;52.092;11.556;2023-04-06T14:48:06;18.50;53.30
5419;DHT22;2732;52.092;11.556;2023-04-06T14:53:07;18.40;52.70
5419;DHT22;2732;52.092;11.556;2023-04-06T14:58:08;18.30;54.10
5419;DHT22;2732;52.092;11.556;2023-04-06T15:03:09;18.30;53.40
5419;DHT22;2732;52.092;11.556;2023-04-06T15:08:10;18.30;54.20
5419;DHT22;2732;52.092;11.556;2023-04-06T15:13:11;18.20;53.20
5419;DHT22;2732;52.092;11.556;2023-04-06T15:18:12;18.10;53.90
5419;DHT22;2732;52.092;11.556;2023-04-06T15:23:13;18.10;52.90
5419;DHT22;2732;52.092;11.556;2023-04-06T15:28:13;17.90;52.20
5419;DHT22;2732;52.092;11.556;2023-04-06T15:33:14;17.80;52.70
5419;DHT22;2732;52.092;11.556;2023-04-06T15:38:15;17.70;52.60
5419;DHT22;2732;52.092;11.556;2023-04-06T15:43:16;17.70;52.60
5419;DHT22;2732;52.092;11.556;2023-04-06T15:48:17;17.60;52.10
5419;DHT22;2732;52.092;11.556;2023-04-06T15:53:18;17.50;52.40
5419;DHT22;2732;52.092;11.556;2023-04-06T15:58:19;17.40;52.20
5419;DHT22;2732;52.092;11.556;2023-04-06T16:03:19;17.30;53.00
5419;DHT22;2732;52.092;11.556;2023-04-06T16:08:20;17.30;54.00
5419;DHT22;2732;52.092;11.556;2023-04-06T16:13:21;17.20;53.20
5419;DHT22;2732;52.092;11.556;2023-04-06T16:18:22;17.10;52.50
5419;DHT22;2732;52.092;11.556;2023-04-06T16:23:22;17.00;53.40
5419;DHT22;2732;52.092;11.556;2023-04-06T16:28:23;16.80;53.00
5419;DHT22;2732;52.092;11.556;2023-04-06T16:33:24;16.80;53.30
5419;DHT22;2732;52.092;11.556;2023-04-06T16:38:25;16.60;53.00
5419;DHT22;2732;52.092;11.556;2023-04-06T16:43:31;16.50;53.50
5419;DHT22;2732;52.092;11.556;2023-04-06T16:48:32;16.30;53.90
5419;DHT22;2732;52.092;11.556;2023-04-06T16:53:33;16.10;53.90
5419;DHT22;2732;52.092;11.556;2023-04-06T16:58:35;15.90;53.70
5419;DHT22;2732;52.092;11.556;2023-04-06T17:03:36;15.70;53.90
5419;DHT22;2732;52.092;11.556;2023-04-06T17:08:37;15.40;53.90
5419;DHT22;2732;52.092;11.556;2023-04-06T17:13:38;15.10;54.10
5419;DHT22;2732;52.092;11.556;2023-04-06T17:18:42;14.80;54.70
5419;DHT22;2732;52.092;11.556;2023-04-06T17:23:43;14.50;54.50
5419;DHT22;2732;52.092;11.556;2023-04-06T17:28:43;14.10;54.50
5419;DHT22;2732;52.092;11.556;2023-04-06T17:33:44;13.80;55.10
5419;DHT22;2732;52.092;11.556;2023-04-06T17:38:46;13.50;56.00
5419;DHT22;2732;52.092;11.556;2023-04-06T17:43:47;13.10;56.60
5419;DHT22;2732;52.092;11.556;2023-04-06T17:48:50;12.80;57.30
5419;DHT22;2732;52.092;11.556;2023-04-06T17:53:52;12.50;57.90
5419;DHT22;2732;52.092;11.556;2023-04-06T17:58:56;12.20;58.90
5419;DHT22;2732;52.092;11.556;2023-04-06T18:03:57;11.90;59.50
5419;DHT22;2732;52.092;11.556;2023-04-06T18:08:58;11.60;60.50
5419;DHT22;2732;52.092;11.556;2023-04-06T18:13:59;11.40;61.20
5419;DHT22;2732;52.092;11.556;2023-04-06T18:19:00;11.10;61.10
5419;DHT22;2732;52.092;11.556;2023-04-06T18:24:01;10.90;61.40
5419;DHT22;2732;52.092;11.556;2023-04-06T18:29:02;10.70;61.90
5419;DHT22;2732;52.092;11.556;2023-04-06T18:34:02;10.50;62.30
5419;DHT22;2732;52.092;11.556;2023-04-06T18:39:04;10.30;63.00
5419;DHT22;2732;52.092;11.556;2023-04-06T18:44:04;10.10;63.30
5419;DHT22;2732;52.092;11.556;2023-04-06T18:49:05;9.90;64.70
5419;DHT22;2732;52.092;11.556;2023-04-06T18:54:06;9.70;65.10
5419;DHT22;2732;52.092;11.556;2023-04-06T18:59:07;9.50;65.60
5419;DHT22;2732;52.092;11.556;2023-04-06T19:04:11;9.40;66.00
5419;DHT22;2732;52.092;11.556;2023-04-06T19:09:12;9.20;66.30
5419;DHT22;2732;52.092;11.556;2023-04-06T19:14:12;9.00;66.40
5419;DHT22;2732;52.092;11.556;2023-04-06T19:19:13;8.90;66.60
5419;DHT22;2732;52.092;11.556;2023-04-06T19:24:14;8.70;66.50
5419;DHT22;2732;52.092;11.556;2023-04-06T19:29:14;8.60;67.00
5419;DHT22;2732;52.092;11.556;2023-04-06T19:34:15;8.50;67.10
5419;DHT22;2732;52.092;11.556;2023-04-06T19:39:17;8.30;67.30
5419;DHT22;2732;52.092;11.556;2023-04-06T19:44:17;8.20;67.90
5419;DHT22;2732;52.092;11.556;2023-04-06T19:49:18;8.10;68.30
5419;DHT22;2732;52.092;11.556;2023-04-06T19:54:19;7.90;68.60
5419;DHT22;2732;52.092;11.556;2023-04-06T19:59:20;7.80;69.10
5419;DHT22;2732;52.092;11.556;2023-04-06T20:04:21;7.70;69.40
5419;DHT22;2732;52.092;11.556;2023-04-06T20:09:22;7.50;69.60
5419;DHT22;2732;52.092;11.556;2023-04-06T20:14:24;7.50;69.70
5419;DHT22;2732;52.092;11.556;2023-04-06T20:19:25;7.30;70.00
5419;DHT22;2732;52.092;11.556;2023-04-06T20:24:25;7.30;70.40
5419;DHT22;2732;52.092;11.556;2023-04-06T20:29:26;7.20;70.70
5419;DHT22;2732;52.092;11.556;2023-04-06T20:34:27;7.00;71.00
5419;DHT22;2732;52.092;11.556;2023-04-06T20:39:31;6.90;71.40
5419;DHT22;2732;52.092;11.556;2023-04-06T20:44:32;6.80;71.80
5419;DHT22;2732;52.092;11.556;2023-04-06T20:49:33;6.70;71.90
5419;DHT22;2732;52.092;11.556;2023-04-06T20:54:33;6.60;72.10
5419;DHT22;2732;52.092;11.556;2023-04-06T20:59:34;6.60;72.40
5419;DHT22;2732;52.092;11.556;2023-04-06T21:04:35;6.50;72.60
5419;DHT22;2732;52.092;11.556;2023-04-06T21:09:37;6.40;72.80
5419;DHT22;2732;52.092;11.556;2023-04-06T21:14:39;6.30;73.00
5419;DHT22;2732;52.092;11.556;2023-04-06T21:19:40;6.20;73.40
5419;DHT22;2732;52.092;11.556;2023-04-06T21:24:41;6.10;73.70
5419;DHT22;2732;52.092;11.556;2023-04-06T21:29:41;6.10;74.00
5419;DHT22;2732;52.092;11.556;2023-04-06T21:34:42;6.00;74.10
5419;DHT22;2732;52.092;11.556;2023-04-06T21:39:45;5.90;74.50
5419;DHT22;2732;52.092;11.556;2023-04-06T21:44:45;5.80;74.80
5419;DHT22;2732;52.092;11.556;2023-04-06T21:49:46;5.70;75.10
5419;DHT22;2732;52.092;11.556;2023-04-06T21:54:46;5.60;75.40
5419;DHT22;2732;52.092;11.556;2023-04-06T21:59:47;5.50;75.60
5419;DHT22;2732;52.092;11.556;2023-04-06T22:04:48;5.40;75.90
5419;DHT22;2732;52.092;11.556;2023-04-06T22:09:50;5.30;76.20
5419;DHT22;2732;52.092;11.556;2023-04-06T22:14:51;5.10;76.40
5419;DHT22;2732;52.092;11.556;2023-04-06T22:19:51;5.00;76.80
5419;DHT22;2732;52.092;11.556;2023-04-06T22:24:52;4.90;77.10
5419;DHT22;2732;52.092;11.556;2023-04-06T22:29:52;4.80;77.40
5419;DHT22;2732;52.092;11.556;2023-04-06T22:34:53;4.70;77.60
5419;DHT22;2732;52.092;11.556;2023-04-06T22:39:54;4.60;78.10
5419;DHT22;2732;52.092;11.556;2023-04-06T22:44:54;4.50;78.40
5419;DHT22;2732;52.092;11.556;2023-04-06T22:49:55;4.50;78.80
5419;DHT22;2732;52.092;11.556;2023-04-06T22:54:55;4.40;79.20
5419;DHT22;2732;52.092;11.556;2023-04-06T22:59:56;4.30;79.50
5419;DHT22;2732;52.092;11.556;2023-04-06T23:04:57;4.20;79.80
5419;DHT22;2732;52.092;11.556;2023-04-06T23:09:58;4.20;80.30
5419;DHT22;2732;52.092;11.556;2023-04-06T23:14:58;4.00;80.50
5419;DHT22;2732;52.092;11.556;2023-04-06T23:19:59;4.00;81.00
5419;DHT22;2732;52.092;11.556;2023-04-06T23:24:59;3.90;81.30
5419;DHT22;2732;52.092;11.556;2023-04-06T23:30:00;3.80;81.80
5419;DHT22;2732;52.092;11.556;2023-04-06T23:35:01;3.80;82.00
5419;DHT22;2732;52.092;11.556;2023-04-06T23:40:02;3.70;82.40
5419;DHT22;2732;52.092;11.556;2023-04-06T23:45:04;3.60;82.80
5419;DHT22;2732;52.092;11.556;2023-04-06T23:50:05;3.60;83.40
5419;DHT22;2732;52.092;11.556;2023-04-06T23:55:07;3.60;84.10
